Illescas, Spain
Current Conditions -  °F | °C
As of 8:00 PM on Thursday 18 Dec 2014 (Local Time) from LEGT Reporting Station
Clear Clear  
Wind Chill: 44°   Ceiling: Unl
Heat Index: 46°   Visibility: 6mi
Dew Point: 45°   Wind: 5mph
Humidity: 93%   Direction: 260°W
Pressure: 30.36"   Gusts: NA
Location:  40.12°N, 3.85°W
Report Text: LEGT 181900Z 26004KT CAVOK 08/07 Q1028
Loading
Personal Weather Stations






























Interactive Weather Map New forecast layout! Learn more

10-Day Weather Forecast

Advertisements
Track Severe Weather on mobile